createdAt,value
2017-03-23T00:00:41.538Z,1015.98
2017-03-23T00:01:51.480Z,1016
2017-03-23T00:03:01.102Z,1016.02
2017-03-23T00:04:11.041Z,1016
2017-03-23T00:05:21.293Z,1015.96
2017-03-23T00:06:31.549Z,1016.04
2017-03-23T00:07:41.178Z,1016.02
2017-03-23T00:08:50.800Z,1016.03
2017-03-23T00:10:00.755Z,1016.02
2017-03-23T00:11:11.008Z,1016.08
2017-03-23T00:12:21.511Z,1016.01
2017-03-23T00:13:31.762Z,1016.03
2017-03-23T00:14:41.396Z,1015.99
2017-03-23T00:15:51.018Z,1015.98
2017-03-23T00:17:00.642Z,1016
2017-03-23T00:18:10.584Z,1016
2017-03-23T00:19:20.836Z,1015.97
2017-03-23T00:20:30.776Z,1016
2017-03-23T00:21:40.714Z,1016.03
2017-03-23T00:22:50.963Z,1015.98
2017-03-23T00:24:00.905Z,1016
2017-03-23T00:25:10.843Z,1015.99
2017-03-23T00:26:20.149Z,1015.98
2017-03-23T00:27:30.088Z,1015.99
2017-03-23T00:28:40.027Z,1015.95
2017-03-23T00:29:50.276Z,1015.94
2017-03-23T00:31:00.213Z,1015.92
2017-03-23T00:32:10.478Z,1015.89
2017-03-23T00:33:20.418Z,1015.86
2017-03-23T00:34:30.676Z,1015.83
2017-03-23T00:35:40.928Z,1015.81
2017-03-23T00:36:51.192Z,1015.78
2017-03-23T00:38:01.128Z,1015.87
2017-03-23T00:39:11.381Z,1015.86
2017-03-23T00:40:21.635Z,1015.89
2017-03-23T00:41:31.258Z,1015.85
2017-03-23T00:42:41.199Z,1015.87
2017-03-23T00:43:51.450Z,1015.83
2017-03-23T00:45:01.394Z,1015.82
2017-03-23T00:46:11.333Z,1015.82
2017-03-23T00:47:21.276Z,1015.82
2017-03-23T00:48:31.528Z,1015.83
2017-03-23T00:49:41.782Z,1015.88
2017-03-23T00:50:51.727Z,1015.83
2017-03-23T00:52:01.982Z,1015.79
2017-03-23T00:53:12.243Z,1015.78
2017-03-23T00:54:22.495Z,1015.81
2017-03-23T00:55:32.435Z,1015.81
2017-03-23T00:56:42.376Z,1015.79
2017-03-23T00:57:52.032Z,1015.84
2017-03-23T00:59:02.281Z,1015.8
2017-03-23T01:00:12.534Z,1015.82
2017-03-23T01:01:22.187Z,1015.84
2017-03-23T01:02:32.444Z,1015.83
2017-03-23T01:03:42.066Z,1015.86
2017-03-23T01:04:51.376Z,1015.84
2017-03-23T01:06:01.666Z,1015.83
2017-03-23T01:07:11.918Z,1015.8
2017-03-23T01:08:21.855Z,1015.85
2017-03-23T01:09:32.105Z,1015.83
2017-03-23T01:10:41.733Z,1015.87
2017-03-23T01:11:51.676Z,1015.9
2017-03-23T01:13:01.931Z,1015.86
2017-03-23T01:14:11.871Z,1015.85
2017-03-23T01:15:22.122Z,1015.82
2017-03-23T01:16:32.374Z,1015.8
2017-03-23T01:17:42.314Z,1015.76
2017-03-23T01:18:51.936Z,1015.84
2017-03-23T01:20:01.892Z,1015.85
2017-03-23T01:21:12.152Z,1015.83
2017-03-23T01:22:22.408Z,1015.83
2017-03-23T01:23:32.346Z,1015.83
2017-03-23T01:24:41.966Z,1015.84
2017-03-23T01:25:51.910Z,1015.87
2017-03-23T01:27:01.855Z,1015.85
2017-03-23T01:28:11.791Z,1015.84
2017-03-23T01:29:21.729Z,1015.85
2017-03-23T01:30:32.004Z,1015.86
2017-03-23T01:31:41.944Z,1015.86
2017-03-23T01:32:51.567Z,1015.85
2017-03-23T01:34:01.818Z,1015.85
2017-03-23T01:35:12.070Z,1015.83
2017-03-23T01:36:22.323Z,1015.81
2017-03-23T01:37:32.579Z,1015.76
2017-03-23T01:38:42.832Z,1015.77
2017-03-23T01:39:53.085Z,1015.75
2017-03-23T01:41:03.391Z,1015.79
2017-03-23T01:42:13.052Z,1015.75
2017-03-23T01:43:22.992Z,1015.73
2017-03-23T01:44:33.246Z,1015.7
2017-03-23T01:45:42.872Z,1015.7
2017-03-23T01:46:53.129Z,1015.68
2017-03-23T01:48:03.069Z,1015.71
2017-03-23T01:49:13.329Z,1015.71
2017-03-23T01:50:23.267Z,1015.71
2017-03-23T01:51:33.204Z,1015.71
2017-03-23T01:52:42.826Z,1015.68
2017-03-23T01:53:52.458Z,1015.66
2017-03-23T01:55:02.400Z,1015.71
2017-03-23T01:56:12.351Z,1015.63
2017-03-23T01:57:22.609Z,1015.66
2017-03-23T01:58:32.548Z,1015.65
2017-03-23T01:59:42.170Z,1015.58
2017-03-23T02:00:52.421Z,1015.66
2017-03-23T02:02:02.365Z,1015.66
2017-03-23T02:03:12.612Z,1015.61
2017-03-23T02:04:22.232Z,1015.65
2017-03-23T02:05:32.166Z,1015.65
2017-03-23T02:06:42.102Z,1015.67
2017-03-23T02:07:51.726Z,1015.63
2017-03-23T02:09:01.665Z,1015.64
2017-03-23T02:10:11.606Z,1015.63
2017-03-23T02:11:21.867Z,1015.63
2017-03-23T02:12:32.116Z,1015.65
2017-03-23T02:13:42.057Z,1015.65
2017-03-23T02:14:51.706Z,1015.63
2017-03-23T02:16:01.334Z,1015.64
2017-03-23T02:17:11.624Z,1015.65
2017-03-23T02:18:21.563Z,1015.62
2017-03-23T02:19:31.496Z,1015.61
2017-03-23T02:20:41.125Z,1015.6
2017-03-23T02:21:51.063Z,1015.59
2017-03-23T02:23:01.313Z,1015.6
2017-03-23T02:24:11.257Z,1015.59
2017-03-23T02:25:21.195Z,1015.53
2017-03-23T02:26:30.820Z,1015.54
2017-03-23T02:27:41.075Z,1015.52
2017-03-23T02:28:51.013Z,1015.48
2017-03-23T02:30:00.633Z,1015.5
2017-03-23T02:31:10.261Z,1015.49
2017-03-23T02:32:20.519Z,1015.44
2017-03-23T02:33:30.460Z,1015.43
2017-03-23T02:34:40.713Z,1015.48
2017-03-23T02:35:50.967Z,1015.41
2017-03-23T02:37:00.910Z,1015.4
2017-03-23T02:38:11.162Z,1015.4
2017-03-23T02:39:21.413Z,1015.38
2017-03-23T02:40:31.699Z,1015.42
2017-03-23T02:41:41.954Z,1015.4
2017-03-23T02:42:51.891Z,1015.35
2017-03-23T02:44:01.825Z,1015.32
2017-03-23T02:45:11.762Z,1015.33
2017-03-23T02:46:21.387Z,1015.31
2017-03-23T02:47:31.015Z,1015.33
2017-03-23T02:48:40.637Z,1015.31
2017-03-23T02:49:50.574Z,1015.3
2017-03-23T02:51:00.827Z,1015.34
2017-03-23T02:52:11.081Z,1015.3
2017-03-23T02:53:20.700Z,1015.29
2017-03-23T02:54:30.645Z,1015.29
2017-03-23T02:55:40.581Z,1015.31
2017-03-23T02:56:50.878Z,1015.31
2017-03-23T02:58:01.129Z,1015.34
2017-03-23T02:59:10.752Z,1015.34
2017-03-23T03:00:20.688Z,1015.4
2017-03-23T03:01:30.956Z,1015.39
2017-03-23T03:02:41.206Z,1015.39
2017-03-23T03:03:50.201Z,1015.39
2017-03-23T03:05:00.140Z,1015.37
2017-03-23T03:06:09.766Z,1015.36
2017-03-23T03:07:20.023Z,1015.36
2017-03-23T03:08:30.275Z,1015.35
2017-03-23T03:09:39.906Z,1015.34
2017-03-23T03:10:49.530Z,1015.32
2017-03-23T03:11:59.469Z,1015.33
2017-03-23T03:13:09.722Z,1015.31
2017-03-23T03:14:19.974Z,1015.25
2017-03-23T03:15:29.915Z,1015.26
2017-03-23T03:16:39.855Z,1015.27
2017-03-23T03:17:49.523Z,1015.25
2017-03-23T03:18:59.495Z,1015.3
2017-03-23T03:20:09.750Z,1015.34
2017-03-23T03:21:19.690Z,1015.3
2017-03-23T03:22:29.947Z,1015.3
2017-03-23T03:23:39.883Z,1015.3
2017-03-23T03:24:49.819Z,1015.3
2017-03-23T03:25:59.759Z,1015.3
2017-03-23T03:27:09.699Z,1015.33
2017-03-23T03:28:19.953Z,1015.31
2017-03-23T03:29:29.888Z,1015.34
2017-03-23T03:30:39.823Z,1015.35
2017-03-23T03:31:49.763Z,1015.37
2017-03-23T03:33:00.015Z,1015.36
2017-03-23T03:34:10.264Z,1015.37
2017-03-23T03:35:19.917Z,1015.4
2017-03-23T03:36:30.178Z,1015.42
2017-03-23T03:37:40.119Z,1015.39
2017-03-23T03:38:50.056Z,1015.47
2017-03-23T03:40:00.332Z,1015.46
2017-03-23T03:41:10.290Z,1015.5
2017-03-23T03:42:20.545Z,1015.53
2017-03-23T03:43:30.488Z,1015.55
2017-03-23T03:44:40.113Z,1015.54
2017-03-23T03:45:50.046Z,1015.53
2017-03-23T03:47:00.302Z,1015.55
2017-03-23T03:48:10.280Z,1015.52
2017-03-23T03:49:20.535Z,1015.55
2017-03-23T03:50:30.785Z,1015.53
2017-03-23T03:51:41.039Z,1015.55
2017-03-23T03:52:51.331Z,1015.58
2017-03-23T03:54:00.951Z,1015.53
2017-03-23T03:55:11.200Z,1015.59
2017-03-23T03:56:21.142Z,1015.54
2017-03-23T03:57:31.120Z,1015.54
2017-03-23T03:58:41.061Z,1015.51
2017-03-23T03:59:50.682Z,1015.45
2017-03-23T04:01:00.940Z,1015.41
2017-03-23T04:02:11.193Z,1015.41
2017-03-23T04:03:21.133Z,1015.36
2017-03-23T04:04:31.389Z,1015.31
2017-03-23T04:05:41.326Z,1015.34
2017-03-23T04:06:50.953Z,1015.25
2017-03-23T04:08:00.576Z,1015.27
2017-03-23T04:09:10.512Z,1015.25
2017-03-23T04:10:20.759Z,1015.27
2017-03-23T04:11:30.388Z,1015.33
2017-03-23T04:12:40.648Z,1015.33
2017-03-23T04:13:50.269Z,1015.39
2017-03-23T04:14:59.582Z,1015.41
2017-03-23T04:16:09.833Z,1015.43
2017-03-23T04:17:19.772Z,1015.47
2017-03-23T04:18:29.718Z,1015.44
2017-03-23T04:19:39.347Z,1015.52
2017-03-23T04:20:49.596Z,1015.47
2017-03-23T04:21:59.534Z,1015.51
2017-03-23T04:23:09.481Z,1015.49
2017-03-23T04:24:18.791Z,1015.52
2017-03-23T04:25:28.727Z,1015.52
2017-03-23T04:26:38.664Z,1015.52
2017-03-23T04:27:48.293Z,1015.5
2017-03-23T04:28:58.227Z,1015.5
2017-03-23T04:30:08.167Z,1015.46
2017-03-23T04:31:18.420Z,1015.52
2017-03-23T04:32:28.673Z,1015.45
2017-03-23T04:33:38.643Z,1015.43
2017-03-23T04:34:48.272Z,1015.41
2017-03-23T04:35:57.580Z,1015.41
2017-03-23T04:37:07.521Z,1015.48
2017-03-23T04:38:17.778Z,1015.48
2017-03-23T04:39:28.035Z,1015.55
2017-03-23T04:40:38.287Z,1015.57
2017-03-23T04:41:48.229Z,1015.58
2017-03-23T04:42:57.901Z,1015.58
2017-03-23T04:44:07.525Z,1015.54
2017-03-23T04:45:17.461Z,1015.58
2017-03-23T04:46:27.712Z,1015.57
2017-03-23T04:47:37.683Z,1015.61
2017-03-23T04:48:47.620Z,1015.63
2017-03-23T04:49:57.868Z,1015.63
2017-03-23T04:51:08.127Z,1015.61
2017-03-23T04:52:17.751Z,1015.6
2017-03-23T04:53:27.384Z,1015.58
2017-03-23T04:54:37.318Z,1015.54
2017-03-23T04:55:46.634Z,1015.54
2017-03-23T04:56:56.886Z,1015.58
2017-03-23T04:58:06.823Z,1015.55
2017-03-23T04:59:16.451Z,1015.55
2017-03-23T05:00:26.710Z,1015.55
2017-03-23T05:01:36.963Z,1015.58
2017-03-23T05:02:46.587Z,1015.58
2017-03-23T05:03:56.836Z,1015.57
2017-03-23T05:05:06.770Z,1015.56
2017-03-23T05:06:16.398Z,1015.54
2017-03-23T05:07:26.657Z,1015.52
2017-03-23T05:08:36.908Z,1015.52
2017-03-23T05:09:46.532Z,1015.54
2017-03-23T05:10:56.475Z,1015.56
2017-03-23T05:12:06.098Z,1015.55
2017-03-23T05:13:15.442Z,1015.58
2017-03-23T05:14:25.375Z,1015.61
2017-03-23T05:15:35.312Z,1015.63
2017-03-23T05:16:45.564Z,1015.61
2017-03-23T05:17:55.503Z,1015.63
2017-03-23T05:19:05.130Z,1015.6
2017-03-23T05:20:15.072Z,1015.65
2017-03-23T05:21:25.324Z,1015.66
2017-03-23T05:22:35.264Z,1015.69
2017-03-23T05:23:45.202Z,1015.7
2017-03-23T05:24:55.449Z,1015.74
2017-03-23T05:26:05.074Z,1015.74
2017-03-23T05:27:14.384Z,1015.75
2017-03-23T05:28:24.636Z,1015.79
2017-03-23T05:29:34.584Z,1015.78
2017-03-23T05:30:44.519Z,1015.8
2017-03-23T05:31:54.149Z,1015.78
2017-03-23T05:33:04.410Z,1015.76
2017-03-23T05:34:14.347Z,1015.78
2017-03-23T05:35:24.288Z,1015.8
2017-03-23T05:36:34.542Z,1015.79
2017-03-23T05:37:44.819Z,1015.86
2017-03-23T05:38:55.068Z,1015.79
2017-03-23T05:40:04.693Z,1015.81
2017-03-23T05:41:14.639Z,1015.81
2017-03-23T05:42:24.266Z,1015.77
2017-03-23T05:43:34.207Z,1015.78
2017-03-23T05:44:43.828Z,1015.78
2017-03-23T05:45:54.085Z,1015.78
2017-03-23T05:47:04.336Z,1015.81
2017-03-23T05:48:14.629Z,1015.81
2017-03-23T05:49:24.892Z,1015.82
2017-03-23T05:50:35.148Z,1015.84
2017-03-23T05:51:44.778Z,1015.87
2017-03-23T05:52:54.410Z,1015.83
2017-03-23T05:54:04.661Z,1015.82
2017-03-23T05:55:14.923Z,1015.82
2017-03-23T05:56:25.174Z,1015.85
2017-03-23T05:57:35.121Z,1015.87
2017-03-23T05:58:45.376Z,1015.9
2017-03-23T05:59:55.308Z,1015.89
2017-03-23T06:01:05.246Z,1015.91
2017-03-23T06:02:14.871Z,1015.88
2017-03-23T06:03:24.808Z,1015.9
2017-03-23T06:04:35.059Z,1015.94
2017-03-23T06:05:45.313Z,1015.92
2017-03-23T06:06:55.253Z,1015.9
2017-03-23T06:08:05.508Z,1015.88
2017-03-23T06:09:15.451Z,1015.9
2017-03-23T06:10:25.387Z,1015.91
2017-03-23T06:11:35.640Z,1015.96
2017-03-23T06:12:45.260Z,1015.89
2017-03-23T06:13:55.521Z,1015.9
2017-03-23T06:15:05.474Z,1015.95
2017-03-23T06:16:15.731Z,1015.95
2017-03-23T06:17:25.670Z,1015.96
2017-03-23T06:18:35.613Z,1015.97
2017-03-23T06:19:45.554Z,1015.98
2017-03-23T06:20:55.184Z,1015.95
2017-03-23T06:22:05.127Z,1015.9
2017-03-23T06:23:14.751Z,1015.96
2017-03-23T06:24:24.685Z,1015.98
2017-03-23T06:25:34.622Z,1015.96
2017-03-23T06:26:44.878Z,1016.01
2017-03-23T06:27:54.189Z,1016.06
2017-03-23T06:29:04.127Z,1016.03
2017-03-23T06:30:14.383Z,1016.03
2017-03-23T06:31:24.643Z,1016
2017-03-23T06:32:34.895Z,1016.01
2017-03-23T06:33:45.144Z,1016.03
2017-03-23T06:34:55.392Z,1016.04
2017-03-23T06:36:05.643Z,1016.06
2017-03-23T06:37:15.593Z,1016.07
2017-03-23T06:38:25.530Z,1016.05
2017-03-23T06:39:35.157Z,1016.08
2017-03-23T06:40:45.092Z,1016.07
2017-03-23T06:41:55.078Z,1016.09
2017-03-23T06:43:05.339Z,1016.09
2017-03-23T06:44:15.274Z,1016.06
2017-03-23T06:45:25.210Z,1016.11
2017-03-23T06:46:35.148Z,1016.09
2017-03-23T06:47:45.089Z,1016.15
2017-03-23T06:48:54.394Z,1016.17
2017-03-23T06:50:04.646Z,1016.17
2017-03-23T06:51:14.589Z,1016.18
2017-03-23T06:52:24.526Z,1016.12
2017-03-23T06:53:34.777Z,1016.16
2017-03-23T06:54:44.715Z,1016.17
2017-03-23T06:55:54.967Z,1016.16
2017-03-23T06:57:05.222Z,1016.16
2017-03-23T06:58:14.846Z,1016.16
2017-03-23T06:59:24.470Z,1016.19
2017-03-23T07:00:34.407Z,1016.2
2017-03-23T07:01:44.659Z,1016.2
2017-03-23T07:02:54.909Z,1016.22
2017-03-23T07:04:04.242Z,1016.2
2017-03-23T07:05:14.495Z,1016.23
2017-03-23T07:06:24.442Z,1016.24
2017-03-23T07:07:34.417Z,1016.23
2017-03-23T07:08:44.670Z,1016.25
2017-03-23T07:09:54.605Z,1016.28
2017-03-23T07:11:04.856Z,1016.27
2017-03-23T07:12:14.792Z,1016.22
2017-03-23T07:13:24.733Z,1016.23
2017-03-23T07:14:34.994Z,1016.23
2017-03-23T07:15:45.256Z,1016.24
2017-03-23T07:16:54.571Z,1016.23
2017-03-23T07:18:04.523Z,1016.28
2017-03-23T07:19:14.779Z,1016.26
2017-03-23T07:20:25.029Z,1016.3
2017-03-23T07:21:34.964Z,1016.29
2017-03-23T07:22:44.902Z,1016.32
2017-03-23T07:23:55.156Z,1016.34
2017-03-23T07:25:05.410Z,1016.36
2017-03-23T07:26:15.666Z,1016.4
2017-03-23T07:27:25.919Z,1016.36
2017-03-23T07:28:35.231Z,1016.4
2017-03-23T07:29:45.175Z,1016.37
2017-03-23T07:30:54.486Z,1016.42
2017-03-23T07:32:04.429Z,1016.41
2017-03-23T07:33:14.687Z,1016.38
2017-03-23T07:34:24.954Z,1016.41
2017-03-23T07:35:34.585Z,1016.39
2017-03-23T07:36:44.522Z,1016.42
2017-03-23T07:37:54.465Z,1016.42
2017-03-23T07:39:04.731Z,1016.42
2017-03-23T07:40:14.669Z,1016.42
2017-03-23T07:41:24.922Z,1016.38
2017-03-23T07:42:35.184Z,1016.41
2017-03-23T07:43:44.849Z,1016.39
2017-03-23T07:44:54.480Z,1016.42
2017-03-23T07:46:04.737Z,1016.42
2017-03-23T07:47:14.673Z,1016.41
2017-03-23T07:48:24.926Z,1016.39
2017-03-23T07:49:35.178Z,1016.37
2017-03-23T07:50:44.800Z,1016.35
2017-03-23T07:51:54.431Z,1016.39
2017-03-23T07:53:04.682Z,1016.36
2017-03-23T07:54:14.933Z,1016.35
2017-03-23T07:55:25.183Z,1016.37
2017-03-23T07:56:35.433Z,1016.38
2017-03-23T07:57:45.687Z,1016.36
2017-03-23T07:58:55.625Z,1016.38
2017-03-23T08:00:05.881Z,1016.38
2017-03-23T08:01:15.507Z,1016.41
2017-03-23T08:02:25.447Z,1016.37
2017-03-23T08:03:35.703Z,1016.38
2017-03-23T08:04:45.958Z,1016.36
2017-03-23T08:05:55.892Z,1016.34
2017-03-23T08:07:05.832Z,1016.34
2017-03-23T08:08:16.084Z,1016.34
2017-03-23T08:09:26.021Z,1016.33
2017-03-23T08:10:35.974Z,1016.35
2017-03-23T08:11:45.921Z,1016.36
2017-03-23T08:12:55.856Z,1016.35
2017-03-23T08:14:06.108Z,1016.36
2017-03-23T08:15:16.048Z,1016.38
2017-03-23T08:16:26.300Z,1016.35
2017-03-23T08:17:36.240Z,1016.36
2017-03-23T08:18:46.176Z,1016.37
2017-03-23T08:19:56.123Z,1016.39
2017-03-23T08:21:06.377Z,1016.37
2017-03-23T08:22:16.005Z,1016.38
2017-03-23T08:23:26.262Z,1016.39
2017-03-23T08:24:36.516Z,1016.42
2017-03-23T08:25:46.451Z,1016.44
2017-03-23T08:26:56.392Z,1016.45
2017-03-23T08:28:06.330Z,1016.46
2017-03-23T08:29:15.950Z,1016.45
2017-03-23T08:30:25.573Z,1016.45
2017-03-23T08:31:35.829Z,1016.47
2017-03-23T08:32:45.769Z,1016.51
2017-03-23T08:33:55.708Z,1016.51
2017-03-23T08:35:05.021Z,1016.48
2017-03-23T08:36:14.648Z,1016.5
2017-03-23T08:37:24.587Z,1016.45
2017-03-23T08:38:34.528Z,1016.48
2017-03-23T08:39:44.157Z,1016.46
2017-03-23T08:40:54.412Z,1016.46
2017-03-23T08:42:04.690Z,1016.46
2017-03-23T08:43:14.000Z,1016.49
2017-03-23T08:44:23.961Z,1016.48
2017-03-23T08:45:33.899Z,1016.55
2017-03-23T08:46:44.151Z,1016.48
2017-03-23T08:47:54.091Z,1016.5
2017-03-23T08:49:04.348Z,1016.47
2017-03-23T08:50:14.600Z,1016.47
2017-03-23T08:51:24.540Z,1016.46
2017-03-23T08:52:34.169Z,1016.41
2017-03-23T08:53:44.458Z,1016.43
2017-03-23T08:54:54.081Z,1016.44
2017-03-23T08:56:04.339Z,1016.39
2017-03-23T08:57:14.279Z,1016.42
2017-03-23T08:58:24.214Z,1016.4
2017-03-23T08:59:34.468Z,1016.4
2017-03-23T09:00:44.402Z,1016.36
2017-03-23T09:01:54.031Z,1016.39
2017-03-23T09:03:03.983Z,1016.38
2017-03-23T09:04:14.239Z,1016.41
2017-03-23T09:05:23.555Z,1016.4
2017-03-23T09:06:33.808Z,1016.41
2017-03-23T09:07:43.433Z,1016.39
2017-03-23T09:08:53.055Z,1016.38
2017-03-23T09:10:03.309Z,1016.39
2017-03-23T09:11:13.561Z,1016.37
2017-03-23T09:12:23.501Z,1016.35
2017-03-23T09:13:33.752Z,1016.33
2017-03-23T09:14:44.014Z,1016.33
2017-03-23T09:15:53.643Z,1016.33
2017-03-23T09:17:03.275Z,1016.3
2017-03-23T09:18:12.593Z,1016.31
2017-03-23T09:19:22.852Z,1016.33
2017-03-23T09:20:33.115Z,1016.34
2017-03-23T09:21:43.409Z,1016.33
2017-03-23T09:22:53.036Z,1016.32
2017-03-23T09:24:02.670Z,1016.34
2017-03-23T09:25:12.921Z,1016.32
2017-03-23T09:26:22.862Z,1016.37
2017-03-23T09:27:33.125Z,1016.39
2017-03-23T09:28:43.074Z,1016.37
2017-03-23T09:29:53.012Z,1016.37
2017-03-23T09:31:03.261Z,1016.4
2017-03-23T09:32:12.573Z,1016.36
2017-03-23T09:33:22.515Z,1016.38
2017-03-23T09:34:32.140Z,1016.42
2017-03-23T09:35:42.392Z,1016.42
2017-03-23T09:36:52.645Z,1016.41
2017-03-23T09:38:02.909Z,1016.38
2017-03-23T09:39:12.536Z,1016.4
2017-03-23T09:40:22.795Z,1016.38
2017-03-23T09:41:32.421Z,1016.36
2017-03-23T09:42:42.681Z,1016.35
2017-03-23T09:43:52.933Z,1016.33
2017-03-23T09:45:02.872Z,1016.35
2017-03-23T09:46:12.814Z,1016.32
2017-03-23T09:47:22.760Z,1016.33
2017-03-23T09:48:32.698Z,1016.3
2017-03-23T09:49:42.953Z,1016.32
2017-03-23T09:50:52.577Z,1016.31
2017-03-23T09:52:02.833Z,1016.31
2017-03-23T09:53:12.772Z,1016.29
2017-03-23T09:54:23.027Z,1016.3
2017-03-23T09:55:33.283Z,1016.29
2017-03-23T09:56:42.918Z,1016.28
2017-03-23T09:57:52.543Z,1016.26
2017-03-23T09:59:02.483Z,1016.27
2017-03-23T10:00:12.427Z,1016.26
2017-03-23T10:01:22.370Z,1016.22
2017-03-23T10:02:31.680Z,1016.24
2017-03-23T10:03:41.939Z,1016.22
2017-03-23T10:04:51.876Z,1016.24
2017-03-23T10:06:01.502Z,1016.22
2017-03-23T10:07:11.135Z,1016.21
2017-03-23T10:08:20.445Z,1016.24
2017-03-23T10:09:29.762Z,1016.25
2017-03-23T10:10:40.013Z,1016.29
2017-03-23T10:11:50.295Z,1016.25
2017-03-23T10:13:00.544Z,1016.27
2017-03-23T10:14:10.792Z,1016.27
2017-03-23T10:15:21.044Z,1016.3
2017-03-23T10:16:31.301Z,1016.32
2017-03-23T10:17:41.247Z,1016.28
2017-03-23T10:18:50.869Z,1016.28
2017-03-23T10:20:01.119Z,1016.27
2017-03-23T10:21:11.390Z,1016.25
2017-03-23T10:22:21.649Z,1016.25
2017-03-23T10:23:31.902Z,1016.24
2017-03-23T10:24:42.206Z,1016.24
2017-03-23T10:25:52.146Z,1016.3
2017-03-23T10:27:02.425Z,1016.31
2017-03-23T10:28:12.681Z,1016.33
2017-03-23T10:29:22.302Z,1016.34
2017-03-23T10:30:32.551Z,1016.39
2017-03-23T10:31:42.491Z,1016.36
2017-03-23T10:32:52.440Z,1016.33
2017-03-23T10:34:02.381Z,1016.35
2017-03-23T10:35:11.379Z,1016.35
2017-03-23T10:36:21.658Z,1016.35
2017-03-23T10:37:31.915Z,1016.36
2017-03-23T10:38:41.229Z,1016.35
2017-03-23T10:39:51.205Z,1016.38
2017-03-23T10:41:01.457Z,1016.39
2017-03-23T10:42:11.081Z,1016.42
2017-03-23T10:43:21.023Z,1016.39
2017-03-23T10:44:31.281Z,1016.41
2017-03-23T10:45:41.534Z,1016.44
2017-03-23T10:46:51.790Z,1016.41
2017-03-23T10:48:01.729Z,1016.4
2017-03-23T10:49:11.359Z,1016.4
2017-03-23T10:50:21.309Z,1016.36
2017-03-23T10:51:30.936Z,1016.38
2017-03-23T10:52:40.561Z,1016.41
2017-03-23T10:53:50.218Z,1016.37
2017-03-23T10:55:00.155Z,1016.37
2017-03-23T10:56:10.169Z,1016.39
2017-03-23T10:57:20.112Z,1016.39
2017-03-23T10:58:30.366Z,1016.4
2017-03-23T10:59:40.614Z,1016.37
2017-03-23T11:00:50.869Z,1016.35
2017-03-23T11:02:01.122Z,1016.3
2017-03-23T11:03:11.062Z,1016.31
2017-03-23T11:04:20.995Z,1016.29
2017-03-23T11:05:31.294Z,1016.27
2017-03-23T11:06:41.546Z,1016.28
2017-03-23T11:07:51.169Z,1016.32
2017-03-23T11:09:01.418Z,1016.3
2017-03-23T11:10:11.041Z,1016.32
2017-03-23T11:11:20.986Z,1016.37
2017-03-23T11:12:30.341Z,1016.34
2017-03-23T11:13:39.965Z,1016.37
2017-03-23T11:14:50.213Z,1016.39
2017-03-23T11:16:00.149Z,1016.39
2017-03-23T11:17:10.405Z,1016.4
2017-03-23T11:18:20.346Z,1016.39
2017-03-23T11:19:30.290Z,1016.42
2017-03-23T11:20:40.260Z,1016.44
2017-03-23T11:21:49.568Z,1016.42
2017-03-23T11:22:59.501Z,1016.43
2017-03-23T11:24:09.752Z,1016.42
2017-03-23T11:25:20.001Z,1016.41
2017-03-23T11:26:29.936Z,1016.41
2017-03-23T11:27:40.189Z,1016.43
2017-03-23T11:28:50.128Z,1016.44
2017-03-23T11:30:00.380Z,1016.46
2017-03-23T11:31:10.006Z,1016.44
2017-03-23T11:32:19.944Z,1016.47
2017-03-23T11:33:29.884Z,1016.47
2017-03-23T11:34:40.141Z,1016.48
2017-03-23T11:35:50.090Z,1016.45
2017-03-23T11:37:00.346Z,1016.45
2017-03-23T11:38:10.288Z,1016.42
2017-03-23T11:39:20.534Z,1016.35
2017-03-23T11:40:30.468Z,1016.37
2017-03-23T11:41:40.405Z,1016.37
2017-03-23T11:42:50.031Z,1016.34
2017-03-23T11:44:00.280Z,1016.33
2017-03-23T11:45:10.526Z,1016.34
2017-03-23T11:46:20.776Z,1016.32
2017-03-23T11:47:30.714Z,1016.29
2017-03-23T11:48:40.336Z,1016.33
2017-03-23T11:49:49.962Z,1016.3
2017-03-23T11:50:59.899Z,1016.32
2017-03-23T11:52:10.149Z,1016.32
2017-03-23T11:53:19.770Z,1016.32
2017-03-23T11:54:30.025Z,1016.32
2017-03-23T11:55:39.654Z,1016.35
2017-03-23T11:56:49.286Z,1016.34
2017-03-23T11:57:59.537Z,1016.39
2017-03-23T11:59:09.161Z,1016.33
2017-03-23T12:00:19.104Z,1016.35
2017-03-23T12:01:29.358Z,1016.31
2017-03-23T12:02:39.297Z,1016.35
2017-03-23T12:03:48.924Z,1016.34
2017-03-23T12:04:59.175Z,1016.32
2017-03-23T12:06:09.426Z,1016.31
2017-03-23T12:07:19.047Z,1016.3
2017-03-23T12:08:29.300Z,1016.33
2017-03-23T12:09:39.236Z,1016.33
2017-03-23T12:10:49.178Z,1016.34
2017-03-23T12:11:59.430Z,1016.37
2017-03-23T12:13:09.681Z,1016.38
2017-03-23T12:14:19.617Z,1016.37
2017-03-23T12:15:29.242Z,1016.36
2017-03-23T12:16:38.875Z,1016.35
2017-03-23T12:17:48.814Z,1016.36
2017-03-23T12:18:58.443Z,1016.35
2017-03-23T12:20:08.386Z,1016.39
2017-03-23T12:21:18.322Z,1016.37
2017-03-23T12:22:27.991Z,1016.36
2017-03-23T12:23:37.612Z,1016.34
2017-03-23T12:24:47.242Z,1016.31
2017-03-23T12:25:57.498Z,1016.31
2017-03-23T12:27:07.789Z,1016.25
2017-03-23T12:28:18.041Z,1016.24
2017-03-23T12:29:27.989Z,1016.21
2017-03-23T12:30:37.926Z,1016.22
2017-03-23T12:31:48.177Z,1016.21
2017-03-23T12:32:58.150Z,1016.17
2017-03-23T12:34:07.775Z,1016.17
2017-03-23T12:35:17.723Z,1016.19
2017-03-23T12:36:27.669Z,1016.22
2017-03-23T12:37:37.926Z,1016.18
2017-03-23T12:38:48.183Z,1016.19
2017-03-23T12:39:58.122Z,1016.14
2017-03-23T12:41:08.067Z,1016.15
2017-03-23T12:42:18.329Z,1016.13
2017-03-23T12:43:28.591Z,1016.11
2017-03-23T12:44:37.913Z,1016.12
2017-03-23T12:45:48.172Z,1016.09
2017-03-23T12:46:58.434Z,1016.07
2017-03-23T12:48:08.383Z,1016.09
2017-03-23T12:49:18.321Z,1016.05
2017-03-23T12:50:28.259Z,1016.05
2017-03-23T12:51:38.202Z,1016.05
2017-03-23T12:52:48.455Z,1016.07
2017-03-23T12:53:58.389Z,1016.06
2017-03-23T12:55:08.654Z,1016.06
2017-03-23T12:56:18.591Z,1016.05
2017-03-23T12:57:28.532Z,1016.08
2017-03-23T12:58:38.159Z,1016.11
2017-03-23T12:59:48.415Z,1016.06
2017-03-23T13:00:58.671Z,1016.09
2017-03-23T13:02:08.299Z,1016.06
2017-03-23T13:03:18.250Z,1016.03
2017-03-23T13:04:28.192Z,1016.02
2017-03-23T13:05:38.147Z,1016.01
2017-03-23T13:06:48.090Z,1015.99
2017-03-23T13:07:58.368Z,1015.96
2017-03-23T13:09:08.309Z,1015.94
2017-03-23T13:10:18.558Z,1015.97
2017-03-23T13:11:28.181Z,1015.93
2017-03-23T13:12:38.149Z,1015.89
2017-03-23T13:13:48.399Z,1015.86
2017-03-23T13:14:58.656Z,1015.85
2017-03-23T13:16:08.604Z,1015.88
2017-03-23T13:17:18.543Z,1015.81
2017-03-23T13:18:28.481Z,1015.75
2017-03-23T13:19:38.730Z,1015.77
2017-03-23T13:20:48.668Z,1015.73
2017-03-23T13:21:58.922Z,1015.72
2017-03-23T13:23:08.552Z,1015.7
2017-03-23T13:24:17.871Z,1015.76
2017-03-23T13:25:27.804Z,1015.78
2017-03-23T13:26:38.054Z,1015.81
2017-03-23T13:27:48.313Z,1015.86
2017-03-23T13:28:58.252Z,1015.89
2017-03-23T13:30:08.502Z,1015.86
2017-03-23T13:31:18.752Z,1015.85
2017-03-23T13:32:28.999Z,1015.83
2017-03-23T13:33:39.247Z,1015.85
2017-03-23T13:34:49.192Z,1015.8
2017-03-23T13:35:59.128Z,1015.8
2017-03-23T13:37:08.753Z,1015.79
2017-03-23T13:38:18.693Z,1015.81
2017-03-23T13:39:28.629Z,1015.82
2017-03-23T13:40:38.881Z,1015.85
2017-03-23T13:41:49.134Z,1015.9
2017-03-23T13:42:59.072Z,1015.89
2017-03-23T13:44:09.321Z,1015.94
2017-03-23T13:45:18.946Z,1015.95
2017-03-23T13:46:29.207Z,1015.93
2017-03-23T13:47:39.460Z,1015.93
2017-03-23T13:48:49.748Z,1015.95
2017-03-23T13:49:59.060Z,1015.96
2017-03-23T13:51:08.997Z,1015.94
2017-03-23T13:52:19.250Z,1015.97
2017-03-23T13:53:28.883Z,1015.96
2017-03-23T13:54:38.818Z,1015.95
2017-03-23T13:55:49.073Z,1015.92
2017-03-23T13:56:59.012Z,1015.93
2017-03-23T13:58:08.951Z,1015.91
2017-03-23T13:59:19.238Z,1015.94
2017-03-23T14:00:29.498Z,1015.98
2017-03-23T14:01:39.124Z,1015.93
2017-03-23T14:02:49.375Z,1015.94
2017-03-23T14:03:59.632Z,1015.94
2017-03-23T14:05:09.891Z,1015.95
2017-03-23T14:06:19.843Z,1015.94
2017-03-23T14:07:30.102Z,1015.97
2017-03-23T14:08:39.726Z,1015.96
2017-03-23T14:09:49.662Z,1015.98